Monmouth, Kansas
Current Conditions -  °F | °C
As of 6:55 PM on Saturday 20 Dec 2014 (Local Time) from KPTS Reporting Station
Overcast Overcast  
Wind Chill: 36°   Ceiling: 2200
Heat Index: 41°   Visibility: 10mi
Dew Point: 38°   Wind: 8mph
Humidity: 86%   Direction: 200°SSW
Pressure: 30.17"   Gusts: NA
Location:  37.3318°N, 95.0213°W
Report Text: KPTS 210055Z AUTO 20007KT 10SM OVC022 05/03 A3017 RMK AO2 T00520031
Loading
Personal Weather Stations






























Interactive Weather Map New forecast layout! Learn more

10-Day Weather Forecast

Advertisements
Track Severe Weather on mobile